Time;durP1;ratioP1;P1;durP2;ratioP2;P2;SDS_P1;SDS_P2;PMS_P1;PMS_P2;Temp;Humidity;BMP_temperature;BMP_pressure;BME280_temperature;BME280_humidity;BME280_pressure;Samples;Min_cycle;Max_cycle;Signal;HPM_P1;HPM_P2
2022/07/09 00:00:43;;;;;;;20.02;11.35;;;;;;;;;;5031927;28;20030;-61
2022/07/09 00:03:09;;;;;;;19.27;11.52;;;;;;;;;;5030686;28;20025;-61
2022/07/09 00:05:35;;;;;;;19.08;10.63;;;;;;;;;;5032096;28;20473;-61
2022/07/09 00:08:01;;;;;;;20.00;10.98;;;;;;;;;;5032113;28;20032;-61
2022/07/09 00:10:27;;;;;;;18.27;11.10;;;;;;;;;;5032464;28;20025;-61
2022/07/09 00:12:53;;;;;;;21.83;11.30;;;;;;;;;;5032380;28;20030;-61
2022/07/09 00:15:19;;;;;;;21.02;11.27;;;;;;;;;;5032193;28;20030;-59
2022/07/09 00:17:45;;;;;;;20.20;11.10;;;;;;;;;;5032089;28;20602;-57
2022/07/09 00:20:11;;;;;;;18.48;10.77;;;;;;;;;;5032738;28;20021;-55
2022/07/09 00:22:38;;;;;;;17.35;11.32;;;;;;;;;;5033200;28;20030;-59
2022/07/09 00:25:04;;;;;;;19.17;10.65;;;;;;;;;;5032460;28;20253;-61
2022/07/09 00:27:30;;;;;;;20.15;10.90;;;;;;;;;;5032027;28;20025;-60
2022/07/09 00:29:56;;;;;;;21.67;10.75;;;;;;;;;;5032070;28;20539;-61
2022/07/09 00:32:22;;;;;;;19.90;10.98;;;;;;;;;;5032243;28;20021;-62
2022/07/09 00:34:48;;;;;;;17.83;10.57;;;;;;;;;;5032021;28;20386;-61
2022/07/09 00:37:14;;;;;;;19.50;11.15;;;;;;;;;;5034458;28;20104;-59
2022/07/09 00:39:40;;;;;;;19.55;12.10;;;;;;;;;;5036131;28;20446;-59
2022/07/09 00:42:07;;;;;;;20.75;11.63;;;;;;;;;;5036368;28;20047;-58
2022/07/09 00:44:33;;;;;;;19.73;10.82;;;;;;;;;;5034818;28;20033;-60
2022/07/09 00:46:59;;;;;;;17.90;10.82;;;;;;;;;;5036166;28;20033;-56
2022/07/09 00:49:28;;;;;;;19.13;11.90;;;;;;;;;;5035826;28;20021;-61
2022/07/09 00:51:54;;;;;;;18.05;10.70;;;;;;;;;;5036147;28;20018;-59
2022/07/09 00:54:20;;;;;;;18.55;11.52;;;;;;;;;;5036088;28;20033;-60
2022/07/09 00:56:46;;;;;;;18.65;10.85;;;;;;;;;;5036076;28;20028;-59
2022/07/09 00:59:13;;;;;;;18.75;11.30;;;;;;;;;;5035613;28;20486;-59
2022/07/09 01:01:39;;;;;;;18.63;11.90;;;;;;;;;;5035786;28;20136;-62
2022/07/09 01:04:06;;;;;;;20.48;12.20;;;;;;;;;;5035787;28;20109;-60
2022/07/09 01:06:34;;;;;;;21.17;11.85;;;;;;;;;;5035894;28;20395;-61
2022/07/09 01:09:00;;;;;;;20.63;12.15;;;;;;;;;;5035358;28;20502;-61
2022/07/09 01:11:26;;;;;;;19.40;11.52;;;;;;;;;;5035665;28;20038;-62
2022/07/09 01:13:52;;;;;;;20.40;11.98;;;;;;;;;;5035507;28;20083;-60
2022/07/09 01:16:20;;;;;;;19.70;11.55;;;;;;;;;;5035473;28;20022;-60
2022/07/09 01:18:47;;;;;;;21.70;12.47;;;;;;;;;;5035531;28;20026;-59
2022/07/09 01:21:16;;;;;;;18.50;12.27;;;;;;;;;;5035591;28;20109;-60
2022/07/09 01:23:42;;;;;;;19.13;12.77;;;;;;;;;;5035620;28;20029;-62
2022/07/09 01:26:08;;;;;;;19.50;13.00;;;;;;;;;;5035518;28;20454;-60
2022/07/09 01:28:34;;;;;;;19.85;12.98;;;;;;;;;;5033780;28;20401;-58
2022/07/09 01:31:00;;;;;;;21.25;14.27;;;;;;;;;;5035358;28;20063;-59
2022/07/09 01:33:27;;;;;;;22.50;14.05;;;;;;;;;;5034080;28;20033;-59
2022/07/09 01:35:53;;;;;;;21.08;13.82;;;;;;;;;;5033793;28;20022;-60
2022/07/09 01:38:19;;;;;;;23.17;13.60;;;;;;;;;;5035258;28;20393;-61
2022/07/09 01:40:45;;;;;;;24.15;13.77;;;;;;;;;;5035463;28;20033;-61
2022/07/09 01:43:13;;;;;;;23.17;13.57;;;;;;;;;;5035052;28;20053;-61
2022/07/09 01:45:38;;;;;;;22.58;13.90;;;;;;;;;;5035190;28;20036;-58
2022/07/09 01:48:04;;;;;;;22.73;14.27;;;;;;;;;;5033968;28;20098;-60
2022/07/09 01:50:30;;;;;;;20.60;13.48;;;;;;;;;;5034929;28;20496;-59
2022/07/09 01:52:56;;;;;;;23.05;14.18;;;;;;;;;;5034887;28;20075;-59
2022/07/09 01:55:22;;;;;;;24.65;14.45;;;;;;;;;;5033848;28;20079;-58
2022/07/09 01:57:48;;;;;;;23.98;13.55;;;;;;;;;;5034682;28;20056;-61
2022/07/09 02:00:15;;;;;;;22.88;13.40;;;;;;;;;;5034841;28;20104;-60
2022/07/09 02:02:41;;;;;;;21.20;13.98;;;;;;;;;;5034762;28;20033;-62
2022/07/09 02:05:07;;;;;;;23.88;13.85;;;;;;;;;;5034604;28;20025;-60
2022/07/09 02:07:33;;;;;;;22.23;14.68;;;;;;;;;;5034347;28;20481;-62
2022/07/09 02:09:59;;;;;;;25.63;13.48;;;;;;;;;;5033761;28;20056;-59
2022/07/09 02:12:27;;;;;;;20.73;13.40;;;;;;;;;;5034327;28;20481;-59
2022/07/09 02:14:53;;;;;;;23.50;14.38;;;;;;;;;;5034588;28;20026;-60
2022/07/09 02:17:20;;;;;;;25.73;14.75;;;;;;;;;;5034363;28;20029;-60
2022/07/09 02:19:46;;;;;;;25.95;15.60;;;;;;;;;;5034381;28;20104;-59
2022/07/09 02:22:12;;;;;;;24.73;15.95;;;;;;;;;;5033099;28;20048;-58
2022/07/09 02:24:38;;;;;;;24.90;15.70;;;;;;;;;;5034550;28;20474;-58
2022/07/09 02:27:04;;;;;;;23.85;15.50;;;;;;;;;;5034748;28;20033;-60
2022/07/09 02:29:30;;;;;;;25.98;15.05;;;;;;;;;;5034182;28;20452;-59
2022/07/09 02:31:57;;;;;;;24.27;15.20;;;;;;;;;;5034111;28;20022;-61
2022/07/09 02:34:23;;;;;;;24.50;14.85;;;;;;;;;;5034015;28;20116;-59
2022/07/09 02:36:49;;;;;;;27.25;15.98;;;;;;;;;;5033973;28;20121;-58
2022/07/09 02:39:15;;;;;;;23.88;15.20;;;;;;;;;;5033855;28;20018;-58
2022/07/09 02:41:41;;;;;;;22.05;14.90;;;;;;;;;;5033946;28;20052;-60
2022/07/09 02:44:07;;;;;;;24.40;15.30;;;;;;;;;;5033783;28;20100;-58
2022/07/09 02:46:33;;;;;;;24.42;14.77;;;;;;;;;;5033789;28;20028;-59
2022/07/09 02:48:59;;;;;;;23.08;15.60;;;;;;;;;;5033796;28;20021;-60
2022/07/09 02:51:25;;;;;;;28.73;16.25;;;;;;;;;;5033686;28;20052;-60
2022/07/09 02:53:51;;;;;;;30.20;15.95;;;;;;;;;;5033762;28;20017;-61
2022/07/09 02:56:17;;;;;;;26.23;15.38;;;;;;;;;;5033629;28;20501;-59
2022/07/09 02:58:43;;;;;;;24.13;14.77;;;;;;;;;;5033169;28;20048;-58
2022/07/09 03:01:09;;;;;;;25.67;15.45;;;;;;;;;;5033634;28;20025;-61
2022/07/09 03:03:35;;;;;;;23.08;15.63;;;;;;;;;;5033554;28;20100;-57
2022/07/09 03:06:02;;;;;;;23.98;14.30;;;;;;;;;;5032448;28;20478;-59
2022/07/09 03:08:28;;;;;;;24.80;16.17;;;;;;;;;;5033369;28;20403;-61
2022/07/09 03:10:54;;;;;;;24.33;15.30;;;;;;;;;;5033315;28;20022;-61
2022/07/09 03:13:21;;;;;;;24.35;14.90;;;;;;;;;;5032995;28;20445;-61
2022/07/09 03:15:47;;;;;;;22.65;14.60;;;;;;;;;;5033032;28;20025;-58
2022/07/09 03:18:13;;;;;;;25.20;15.13;;;;;;;;;;5032892;28;20140;-59
2022/07/09 03:20:39;;;;;;;25.30;15.55;;;;;;;;;;5033388;28;20033;-60
2022/07/09 03:23:05;;;;;;;26.25;15.43;;;;;;;;;;5033189;28;20026;-59
2022/07/09 03:25:31;;;;;;;24.42;15.90;;;;;;;;;;5033117;28;20033;-58
2022/07/09 03:27:57;;;;;;;25.98;16.33;;;;;;;;;;5033053;28;20030;-59
2022/07/09 03:30:23;;;;;;;26.10;15.88;;;;;;;;;;5032890;28;20096;-60
2022/07/09 03:32:50;;;;;;;25.85;16.15;;;;;;;;;;5033094;28;20021;-60
2022/07/09 03:35:16;;;;;;;23.17;15.48;;;;;;;;;;5033013;28;20037;-59
2022/07/09 03:37:42;;;;;;;23.00;16.15;;;;;;;;;;5032742;28;20393;-59
2022/07/09 03:40:08;;;;;;;26.05;15.85;;;;;;;;;;5032713;28;20410;-59
2022/07/09 03:42:34;;;;;;;22.48;14.75;;;;;;;;;;5032276;28;20047;-59
2022/07/09 03:45:00;;;;;;;24.13;14.15;;;;;;;;;;5032452;28;20033;-58
2022/07/09 03:47:26;;;;;;;26.08;14.60;;;;;;;;;;5032616;28;20026;-57
2022/07/09 03:49:52;;;;;;;26.05;14.80;;;;;;;;;;5032835;28;20017;-56
2022/07/09 03:52:18;;;;;;;24.88;14.57;;;;;;;;;;5032476;28;20048;-60
2022/07/09 03:54:44;;;;;;;22.70;14.55;;;;;;;;;;5032608;28;20474;-61
2022/07/09 03:57:11;;;;;;;23.52;14.95;;;;;;;;;;5032372;28;20029;-64
2022/07/09 03:59:37;;;;;;;23.08;15.90;;;;;;;;;;5032783;28;20481;-59
2022/07/09 04:02:04;;;;;;;21.70;13.93;;;;;;;;;;5031247;28;20417;-57
2022/07/09 04:04:30;;;;;;;24.48;14.85;;;;;;;;;;5032599;28;20029;-59
2022/07/09 04:06:56;;;;;;;24.20;14.65;;;;;;;;;;5032439;28;20064;-60
2022/07/09 04:09:22;;;;;;;22.90;14.57;;;;;;;;;;5032258;28;20029;-60
2022/07/09 04:11:48;;;;;;;24.10;15.13;;;;;;;;;;5031899;28;20056;-58
2022/07/09 04:14:14;;;;;;;20.60;13.30;;;;;;;;;;5032241;28;20029;-61
2022/07/09 04:16:40;;;;;;;25.30;14.05;;;;;;;;;;5032277;28;20136;-60
2022/07/09 04:19:06;;;;;;;21.35;14.27;;;;;;;;;;5032141;28;20017;-58
2022/07/09 04:21:32;;;;;;;23.65;14.35;;;;;;;;;;5032254;28;20033;-60
2022/07/09 04:23:58;;;;;;;21.08;13.38;;;;;;;;;;5032246;28;20021;-60
2022/07/09 04:26:25;;;;;;;24.17;13.57;;;;;;;;;;5032271;28;20029;-59
2022/07/09 04:28:51;;;;;;;22.67;13.55;;;;;;;;;;5032514;28;20470;-60
2022/07/09 04:31:19;;;;;;;25.20;14.40;;;;;;;;;;5032892;28;20022;-60
2022/07/09 04:33:45;;;;;;;21.38;14.00;;;;;;;;;;5033493;28;20033;-59
2022/07/09 04:36:11;;;;;;;18.67;12.20;;;;;;;;;;5032316;28;20167;-56
2022/07/09 04:38:38;;;;;;;19.80;12.77;;;;;;;;;;5032163;28;20029;-61
2022/07/09 04:41:04;;;;;;;20.52;12.35;;;;;;;;;;5032432;28;20473;-59
2022/07/09 04:43:30;;;;;;;22.30;12.45;;;;;;;;;;5032222;28;20048;-59
2022/07/09 04:45:57;;;;;;;23.27;13.10;;;;;;;;;;5030622;28;20163;-57
2022/07/09 04:48:23;;;;;;;25.75;13.95;;;;;;;;;;5031645;28;20029;-61
2022/07/09 04:50:48;;;;;;;23.63;13.70;;;;;;;;;;5031731;28;20034;-58
2022/07/09 04:53:14;;;;;;;24.05;14.18;;;;;;;;;;5032315;28;20097;-60
2022/07/09 04:55:41;;;;;;;21.45;13.88;;;;;;;;;;5031966;28;20613;-60
2022/07/09 04:58:07;;;;;;;23.77;15.32;;;;;;;;;;5030505;28;20511;-57
2022/07/09 05:00:33;;;;;;;24.88;14.98;;;;;;;;;;5031882;28;20021;-59
2022/07/09 05:02:59;;;;;;;27.98;15.35;;;;;;;;;;5031639;28;20022;-60
2022/07/09 05:05:26;;;;;;;23.08;14.57;;;;;;;;;;5031861;28;20030;-60
2022/07/09 05:07:52;;;;;;;29.55;16.45;;;;;;;;;;5031632;28;20025;-61
2022/07/09 05:10:19;;;;;;;32.17;15.75;;;;;;;;;;5031773;28;20393;-60
2022/07/09 05:12:45;;;;;;;24.48;15.05;;;;;;;;;;5031622;28;20029;-60
2022/07/09 05:15:11;;;;;;;24.45;16.05;;;;;;;;;;5031865;28;20402;-58
2022/07/09 05:17:38;;;;;;;26.05;16.35;;;;;;;;;;5031432;28;20040;-61
2022/07/09 05:20:05;;;;;;;27.00;16.75;;;;;;;;;;5031786;28;20026;-61
2022/07/09 05:22:32;;;;;;;23.83;15.48;;;;;;;;;;5033234;28;20112;-57
2022/07/09 05:24:58;;;;;;;24.90;16.05;;;;;;;;;;5034168;28;20028;-60
2022/07/09 05:27:24;;;;;;;25.55;16.80;;;;;;;;;;5035253;28;20104;-61
2022/07/09 05:29:50;;;;;;;26.58;17.83;;;;;;;;;;5035254;28;20028;-61
2022/07/09 05:32:16;;;;;;;26.05;16.23;;;;;;;;;;5035293;28;20017;-56
2022/07/09 05:34:42;;;;;;;24.90;15.73;;;;;;;;;;5035127;28;20086;-61
2022/07/09 05:37:08;;;;;;;23.75;15.77;;;;;;;;;;5035400;28;20026;-53
2022/07/09 05:39:34;;;;;;;22.48;15.45;;;;;;;;;;5035110;28;20079;-60
2022/07/09 05:42:00;;;;;;;25.02;16.67;;;;;;;;;;5035083;28;20029;-60
2022/07/09 05:44:26;;;;;;;28.02;17.10;;;;;;;;;;5033554;28;20053;-58
2022/07/09 05:46:52;;;;;;;26.88;16.02;;;;;;;;;;5034806;28;20472;-57
2022/07/09 05:49:18;;;;;;;26.83;17.80;;;;;;;;;;5033123;28;20079;-60
2022/07/09 05:51:45;;;;;;;24.90;16.77;;;;;;;;;;5034871;28;20084;-61
2022/07/09 05:54:11;;;;;;;26.85;15.52;;;;;;;;;;5034690;28;20101;-60
2022/07/09 05:56:37;;;;;;;24.42;15.50;;;;;;;;;;5034692;28;20048;-60
2022/07/09 05:59:03;;;;;;;24.17;15.05;;;;;;;;;;5034386;28;20026;-61
2022/07/09 06:01:30;;;;;;;26.05;15.63;;;;;;;;;;5034480;28;20030;-55
2022/07/09 06:03:56;;;;;;;25.42;15.43;;;;;;;;;;5034439;28;20033;-60
2022/07/09 06:06:22;;;;;;;23.35;15.05;;;;;;;;;;5034804;28;20083;-60
2022/07/09 06:08:48;;;;;;;23.80;15.75;;;;;;;;;;5034426;28;20100;-60
2022/07/09 06:11:14;;;;;;;24.27;15.43;;;;;;;;;;5034325;28;20551;-58
2022/07/09 06:13:40;;;;;;;23.90;15.05;;;;;;;;;;5034339;28;20041;-60
2022/07/09 06:16:06;;;;;;;26.15;16.67;;;;;;;;;;5034210;28;20028;-58
2022/07/09 06:18:32;;;;;;;23.50;14.27;;;;;;;;;;5032790;28;20537;-61
2022/07/09 06:20:58;;;;;;;23.85;13.68;;;;;;;;;;5033020;28;20079;-58
2022/07/09 06:23:24;;;;;;;24.85;14.45;;;;;;;;;;5035431;28;20029;-57
2022/07/09 06:25:50;;;;;;;24.02;14.63;;;;;;;;;;5034226;28;20025;-58
2022/07/09 06:28:16;;;;;;;25.15;14.68;;;;;;;;;;5033829;28;20527;-53
2022/07/09 06:30:43;;;;;;;24.02;13.35;;;;;;;;;;5034031;28;20044;-60
2022/07/09 06:33:09;;;;;;;21.55;13.50;;;;;;;;;;5034057;28;20024;-61
2022/07/09 06:35:35;;;;;;;21.65;13.52;;;;;;;;;;5033312;28;20049;-59
2022/07/09 06:38:01;;;;;;;19.80;12.07;;;;;;;;;;5033662;28;20053;-59
2022/07/09 06:40:27;;;;;;;23.20;14.05;;;;;;;;;;5033981;28;20053;-59
2022/07/09 06:42:53;;;;;;;20.38;12.00;;;;;;;;;;5033532;28;20107;-59
2022/07/09 06:45:19;;;;;;;20.33;12.20;;;;;;;;;;5033402;28;20060;-59
2022/07/09 06:47:45;;;;;;;23.02;12.45;;;;;;;;;;5033327;28;20025;-59
2022/07/09 06:50:12;;;;;;;18.95;11.90;;;;;;;;;;5033527;28;20029;-59
2022/07/09 06:52:38;;;;;;;25.15;13.52;;;;;;;;;;5033657;28;20105;-59
2022/07/09 06:55:04;;;;;;;21.48;11.80;;;;;;;;;;5033536;28;20026;-60
2022/07/09 06:57:30;;;;;;;18.05;11.30;;;;;;;;;;5033269;28;20026;-62
2022/07/09 06:59:57;;;;;;;19.88;11.73;;;;;;;;;;5033374;28;20021;-61
2022/07/09 07:02:23;;;;;;;21.80;12.65;;;;;;;;;;5033241;28;20021;-59
2022/07/09 07:04:49;;;;;;;19.27;11.05;;;;;;;;;;5033726;28;20490;-58
2022/07/09 07:07:15;;;;;;;18.48;11.30;;;;;;;;;;5033308;28;20021;-60
2022/07/09 07:09:40;;;;;;;19.00;10.48;;;;;;;;;;5033661;28;20116;-60
2022/07/09 07:12:07;;;;;;;20.77;10.60;;;;;;;;;;5033163;28;20028;-61
2022/07/09 07:14:33;;;;;;;18.73;10.88;;;;;;;;;;5033418;28;20025;-60
2022/07/09 07:16:59;;;;;;;18.50;11.10;;;;;;;;;;5033596;28;20032;-60
2022/07/09 07:19:25;;;;;;;16.92;9.90;;;;;;;;;;5033170;28;20032;-56
2022/07/09 07:21:51;;;;;;;18.10;9.88;;;;;;;;;;5033044;28;20053;-60
2022/07/09 07:24:17;;;;;;;16.70;10.15;;;;;;;;;;5033177;28;20025;-62
2022/07/09 07:26:43;;;;;;;17.80;10.65;;;;;;;;;;5032852;28;20026;-61
2022/07/09 07:29:09;;;;;;;17.75;10.45;;;;;;;;;;5032666;28;20021;-61
2022/07/09 07:31:35;;;;;;;16.70;10.15;;;;;;;;;;5032354;28;20029;-59
2022/07/09 07:34:01;;;;;;;17.60;9.65;;;;;;;;;;5032994;28;20044;-59
2022/07/09 07:36:27;;;;;;;16.13;9.23;;;;;;;;;;5033109;28;20082;-59
2022/07/09 07:38:53;;;;;;;17.63;9.10;;;;;;;;;;5032481;28;20081;-60
2022/07/09 07:41:20;;;;;;;16.20;9.07;;;;;;;;;;5032944;28;20035;-58
2022/07/09 07:43:47;;;;;;;15.00;8.48;;;;;;;;;;5032678;28;20053;-61
2022/07/09 07:46:13;;;;;;;17.15;9.57;;;;;;;;;;5034221;28;20029;-59
2022/07/09 07:48:41;;;;;;;16.38;9.20;;;;;;;;;;5035721;28;20112;-60
2022/07/09 07:51:07;;;;;;;19.30;9.32;;;;;;;;;;5035010;28;20486;-62
2022/07/09 07:53:33;;;;;;;16.67;9.55;;;;;;;;;;5034969;28;20068;-61
2022/07/09 07:56:03;;;;;;;16.00;9.52;;;;;;;;;;5034510;28;20025;-58
2022/07/09 07:58:29;;;;;;;18.25;9.18;;;;;;;;;;5015506;28;20021;-58
2022/07/09 08:00:55;;;;;;;18.35;9.70;;;;;;;;;;5033117;28;20117;-59
2022/07/09 08:03:20;;;;;;;16.23;9.25;;;;;;;;;;5032740;28;20060;-57
2022/07/09 08:05:47;;;;;;;16.75;9.10;;;;;;;;;;5032485;28;20072;-58
2022/07/09 08:08:13;;;;;;;17.20;9.82;;;;;;;;;;5032186;28;20034;-60
2022/07/09 08:10:39;;;;;;;18.00;9.70;;;;;;;;;;5031769;28;20053;-60
2022/07/09 08:13:05;;;;;;;15.63;8.60;;;;;;;;;;5031823;28;20485;-55
2022/07/09 08:15:31;;;;;;;16.33;8.70;;;;;;;;;;5032384;28;20040;-59
2022/07/09 08:17:57;;;;;;;17.50;9.57;;;;;;;;;;5031985;28;20018;-60
2022/07/09 08:20:24;;;;;;;16.00;8.43;;;;;;;;;;5032281;28;20034;-53
2022/07/09 08:22:50;;;;;;;14.88;8.55;;;;;;;;;;5031787;28;20595;-61
2022/07/09 08:25:16;;;;;;;16.58;8.63;;;;;;;;;;5032007;28;20032;-60
2022/07/09 08:27:42;;;;;;;15.95;9.10;;;;;;;;;;5031739;28;20029;-61
2022/07/09 08:30:08;;;;;;;18.52;8.55;;;;;;;;;;5032075;28;20072;-59
2022/07/09 08:32:34;;;;;;;15.75;8.30;;;;;;;;;;5027902;28;20022;-59
2022/07/09 08:35:00;;;;;;;14.70;7.80;;;;;;;;;;5031940;28;20478;-60
2022/07/09 08:37:26;;;;;;;14.27;7.97;;;;;;;;;;5031522;28;20084;-59
2022/07/09 08:39:52;;;;;;;14.27;7.97;;;;;;;;;;5012640;28;20486;-59
2022/07/09 08:42:18;;;;;;;15.20;8.15;;;;;;;;;;5011953;28;20040;-57
2022/07/09 08:44:46;;;;;;;15.40;8.40;;;;;;;;;;5012049;28;20479;-59
2022/07/09 08:47:12;;;;;;;;;;;;;;;;;;5012374;28;20030;-57
2022/07/09 08:49:39;;;;;;;14.13;7.88;;;;;;;;;;5023559;28;20320;-61
2022/07/09 08:52:06;;;;;;;14.98;8.20;;;;;;;;;;5031640;28;20024;-56
2022/07/09 08:54:37;;;;;;;14.70;8.70;;;;;;;;;;5031946;28;20032;-58
2022/07/09 08:57:03;;;;;;;14.77;8.68;;;;;;;;;;5032434;28;20018;-59
2022/07/09 08:59:30;;;;;;;16.25;8.70;;;;;;;;;;5018212;28;20200;-61
2022/07/09 09:01:56;;;;;;;15.40;8.48;;;;;;;;;;5036206;28;20440;-57
2022/07/09 09:04:22;;;;;;;15.48;8.60;;;;;;;;;;5036314;28;20031;-60
2022/07/09 09:06:48;;;;;;;16.10;8.52;;;;;;;;;;5024198;28;20025;-60
2022/07/09 09:09:18;;;;;;;14.98;8.45;;;;;;;;;;5016443;28;20464;-60
2022/07/09 09:11:47;;;;;;;14.45;8.30;;;;;;;;;;5016171;28;20053;-60
2022/07/09 09:14:18;;;;;;;15.35;8.77;;;;;;;;;;5016213;28;20048;-60
2022/07/09 09:16:44;;;;;;;14.25;7.82;;;;;;;;;;4998138;28;20557;-58
2022/07/09 09:19:10;;;;;;;15.13;8.10;;;;;;;;;;5015067;28;20069;-58
2022/07/09 09:21:37;;;;;;;13.85;8.20;;;;;;;;;;5015518;28;20030;-52
2022/07/09 09:24:03;;;;;;;14.45;8.10;;;;;;;;;;5019236;28;20041;-57
2022/07/09 09:26:30;;;;;;;15.48;8.43;;;;;;;;;;5017857;28;20096;-59
2022/07/09 09:29:01;;;;;;;15.05;8.40;;;;;;;;;;5034569;28;20507;-59
2022/07/09 09:31:27;;;;;;;15.93;8.27;;;;;;;;;;5035217;28;20025;-58
2022/07/09 09:33:55;;;;;;;14.65;8.43;;;;;;;;;;5034836;28;20021;-58
2022/07/09 09:36:51;;;;;;;15.10;8.40;;;;;;;;;;5017247;28;20025;-59
2022/07/09 09:39:27;;;;;;;15.48;8.50;;;;;;;;;;5021474;28;20516;-59
2022/07/09 09:42:04;;;;;;;15.00;8.50;;;;;;;;;;5016489;28;20029;-59
2022/07/09 09:44:36;;;;;;;15.20;8.75;;;;;;;;;;5033991;28;20021;-58
2022/07/09 09:47:02;;;;;;;16.25;8.90;;;;;;;;;;5034534;28;20025;-59
2022/07/09 09:49:28;;;;;;;15.23;8.52;;;;;;;;;;5034557;28;20079;-60
2022/07/09 09:51:54;;;;;;;14.85;8.30;;;;;;;;;;5034817;28;20083;-56
2022/07/09 09:54:21;;;;;;;16.48;8.68;;;;;;;;;;5016795;28;20037;-58
2022/07/09 09:56:47;;;;;;;14.27;8.30;;;;;;;;;;5034894;28;20025;-57
2022/07/09 09:59:13;;;;;;;14.95;8.48;;;;;;;;;;5033221;28;20017;-58
2022/07/09 10:01:43;;;;;;;16.27;8.88;;;;;;;;;;5034899;28;20393;-57
2022/07/09 10:04:10;;;;;;;14.57;8.60;;;;;;;;;;5034484;28;20029;-58
2022/07/09 10:06:36;;;;;;;15.18;9.07;;;;;;;;;;5034486;28;20482;-60
2022/07/09 10:09:07;;;;;;;16.23;9.25;;;;;;;;;;5033135;28;20112;-58
2022/07/09 10:11:40;;;;;;;15.70;9.02;;;;;;;;;;5034401;28;20021;-54
2022/07/09 10:14:06;;;;;;;15.45;9.18;;;;;;;;;;5034287;28;20026;-58
2022/07/09 10:16:41;;;;;;;14.50;9.00;;;;;;;;;;5016590;28;20030;-58
2022/07/09 10:19:07;;;;;;;15.63;9.70;;;;;;;;;;5034474;28;20386;-60
2022/07/09 10:21:41;;;;;;;14.82;8.82;;;;;;;;;;5034426;28;20101;-59
2022/07/09 10:24:08;;;;;;;16.35;9.07;;;;;;;;;;5016289;28;20428;-58
2022/07/09 10:26:44;;;;;;;16.35;9.15;;;;;;;;;;5034243;28;20029;-60
2022/07/09 10:29:20;;;;;;;15.27;9.38;;;;;;;;;;5034186;28;20029;-56
2022/07/09 10:31:50;;;;;;;16.42;9.40;;;;;;;;;;5033962;28;20025;-58
2022/07/09 10:34:37;;;;;;;15.40;9.80;;;;;;;;;;5034090;28;20025;-59
2022/07/09 10:37:04;;;;;;;17.67;9.77;;;;;;;;;;5034506;28;20024;-59
2022/07/09 10:39:31;;;;;;;17.73;9.27;;;;;;;;;;5033224;28;20401;-60
2022/07/09 10:42:01;;;;;;;16.05;8.95;;;;;;;;;;5033869;28;20045;-59
2022/07/09 10:44:28;;;;;;;15.77;9.10;;;;;;;;;;5034061;28;20017;-58
2022/07/09 10:46:57;;;;;;;15.50;9.40;;;;;;;;;;5034064;28;20021;-60
2022/07/09 10:49:25;;;;;;;14.82;8.88;;;;;;;;;;5033584;28;20029;-59
2022/07/09 10:51:55;;;;;;;14.55;9.05;;;;;;;;;;5033390;28;20075;-56
2022/07/09 10:54:21;;;;;;;15.23;9.57;;;;;;;;;;5033694;28;20018;-59
2022/07/09 10:56:47;;;;;;;17.08;9.35;;;;;;;;;;5037671;28;20013;-59
2022/07/09 10:59:18;;;;;;;15.95;9.30;;;;;;;;;;5035496;28;20427;-58
2022/07/09 11:01:44;;;;;;;15.07;9.35;;;;;;;;;;5053370;28;20039;-59
2022/07/09 11:04:11;;;;;;;17.05;10.13;;;;;;;;;;5053349;28;20076;-57
2022/07/09 11:06:48;;;;;;;15.40;9.47;;;;;;;;;;4665539;28;10000193;-59
2022/07/09 11:09:14;;;;;;;15.45;9.50;;;;;;;;;;5011349;28;20372;-59
2022/07/09 11:11:44;;;;;;;15.73;9.73;;;;;;;;;;5010085;28;20052;-58
2022/07/09 11:14:10;;;;;;;15.45;9.57;;;;;;;;;;5017207;28;20033;-58
2022/07/09 11:16:36;;;;;;;17.35;10.38;;;;;;;;;;5030381;28;20393;-57
2022/07/09 11:19:18;;;;;;;16.45;10.38;;;;;;;;;;5030228;28;20073;-58
2022/07/09 11:21:45;;;;;;;15.40;10.18;;;;;;;;;;5030144;28;20025;-59
2022/07/09 11:24:14;;;;;;;15.25;9.98;;;;;;;;;;5011260;28;20080;-59
2022/07/09 11:26:41;;;;;;;15.68;10.20;;;;;;;;;;5010289;28;20037;-57
2022/07/09 11:29:10;;;;;;;15.40;9.90;;;;;;;;;;5010195;28;20033;-58
2022/07/09 11:31:36;;;;;;;15.43;9.75;;;;;;;;;;4994039;28;20450;-60
2022/07/09 11:34:15;;;;;;;14.70;9.70;;;;;;;;;;5030130;28;20026;-59
2022/07/09 11:36:42;;;;;;;15.10;9.70;;;;;;;;;;5030354;28;20397;-60
2022/07/09 11:39:08;;;;;;;16.80;10.02;;;;;;;;;;5028537;28;20035;-58
2022/07/09 11:41:44;;;;;;;15.73;9.82;;;;;;;;;;5010113;28;20061;-60
2022/07/09 11:44:12;;;;;;;15.30;9.55;;;;;;;;;;5009022;28;20029;-57
2022/07/09 11:46:38;;;;;;;15.55;9.80;;;;;;;;;;5010954;28;20030;-61
2022/07/09 11:49:14;;;;;;;15.15;9.90;;;;;;;;;;5011244;28;20108;-59
2022/07/09 11:51:41;;;;;;;20.88;10.82;;;;;;;;;;5012628;28;20108;-60
2022/07/09 11:54:07;;;;;;;16.55;10.15;;;;;;;;;;5013037;28;20093;-60
2022/07/09 11:56:45;;;;;;;16.27;10.57;;;;;;;;;;5012642;28;20053;-58
2022/07/09 11:59:11;;;;;;;15.30;10.25;;;;;;;;;;5012437;28;20040;-59
2022/07/09 12:01:37;;;;;;;15.02;10.40;;;;;;;;;;5012774;28;20395;-60
2022/07/09 12:04:04;;;;;;;15.25;10.05;;;;;;;;;;5012683;28;20045;-59
2022/07/09 12:06:30;;;;;;;16.80;10.32;;;;;;;;;;5014884;28;20073;-61
2022/07/09 12:09:00;;;;;;;15.75;10.30;;;;;;;;;;5032144;28;20109;-59
2022/07/09 12:11:30;;;;;;;15.48;10.10;;;;;;;;;;5014730;28;20366;-58
2022/07/09 12:13:56;;;;;;;16.13;10.20;;;;;;;;;;5032043;28;20529;-59
2022/07/09 12:16:22;;;;;;;19.13;10.90;;;;;;;;;;5032488;28;20033;-59
2022/07/09 12:18:48;;;;;;;15.70;10.40;;;;;;;;;;5032371;28;20032;-58
2022/07/09 12:21:14;;;;;;;15.82;10.27;;;;;;;;;;5014281;28;20092;-61
2022/07/09 12:23:40;;;;;;;17.63;10.35;;;;;;;;;;4683960;28;10000386;-58
2022/07/09 12:26:07;;;;;;;15.98;9.77;;;;;;;;;;5029292;28;20427;-59
2022/07/09 12:28:32;;;;;;;14.95;9.85;;;;;;;;;;5028838;28;20032;-61
2022/07/09 12:30:59;;;;;;;15.43;10.40;;;;;;;;;;5028686;28;20034;-58
2022/07/09 12:33:25;;;;;;;14.57;9.68;;;;;;;;;;5028083;28;20045;-59
2022/07/09 12:35:51;;;;;;;15.15;10.00;;;;;;;;;;5028990;28;20034;-57
2022/07/09 12:38:17;;;;;;;17.63;11.35;;;;;;;;;;5028991;28;20025;-59
2022/07/09 12:40:43;;;;;;;17.05;10.25;;;;;;;;;;5008217;28;20034;-56
2022/07/09 12:43:09;;;;;;;15.48;10.35;;;;;;;;;;5009423;28;20057;-56
2022/07/09 12:45:35;;;;;;;17.60;10.65;;;;;;;;;;5009539;28;20030;-57
2022/07/09 12:48:01;;;;;;;16.38;10.73;;;;;;;;;;5016198;28;20034;-54
2022/07/09 12:50:27;;;;;;;16.35;10.55;;;;;;;;;;5011791;28;20021;-57
2022/07/09 12:52:52;;;;;;;15.35;10.50;;;;;;;;;;5029069;28;20030;-55
2022/07/09 12:55:18;;;;;;;15.75;10.05;;;;;;;;;;5028666;28;20033;-56
2022/07/09 12:57:44;;;;;;;16.25;10.27;;;;;;;;;;5028784;28;20104;-58
2022/07/09 13:00:11;;;;;;;15.15;9.80;;;;;;;;;;5028779;28;20116;-56
2022/07/09 13:02:37;;;;;;;15.15;11.18;;;;;;;;;;5028725;28;20075;-56
2022/07/09 13:05:03;;;;;;;14.93;10.57;;;;;;;;;;5028756;28;20393;-54
2022/07/09 13:07:29;;;;;;;16.30;10.80;;;;;;;;;;5028713;28;20032;-56
2022/07/09 13:09:55;;;;;;;17.33;10.80;;;;;;;;;;5028549;28;20041;-56
2022/07/09 13:12:21;;;;;;;16.30;10.75;;;;;;;;;;5028603;28;20091;-59
2022/07/09 13:14:47;;;;;;;15.52;10.65;;;;;;;;;;5028793;28;20026;-55
2022/07/09 13:17:13;;;;;;;16.83;10.60;;;;;;;;;;5010833;28;20029;-56
2022/07/09 13:19:39;;;;;;;14.90;10.50;;;;;;;;;;5028706;28;20033;-52
2022/07/09 13:22:08;;;;;;;15.80;10.70;;;;;;;;;;5028507;28;20390;-55
2022/07/09 13:24:34;;;;;;;14.73;10.40;;;;;;;;;;5028524;28;20029;-55
2022/07/09 13:27:02;;;;;;;18.63;10.38;;;;;;;;;;5028500;28;20029;-54
2022/07/09 13:29:28;;;;;;;15.48;10.48;;;;;;;;;;5028540;28;20024;-58
2022/07/09 13:31:54;;;;;;;14.63;10.02;;;;;;;;;;5028979;28;20025;-55
2022/07/09 13:34:20;;;;;;;14.27;10.13;;;;;;;;;;5028915;28;20023;-56
2022/07/09 13:36:46;;;;;;;15.27;10.35;;;;;;;;;;5025441;28;20479;-55
2022/07/09 13:39:12;;;;;;;14.90;10.20;;;;;;;;;;5010487;28;20120;-54
2022/07/09 13:41:38;;;;;;;15.85;10.52;;;;;;;;;;5028709;28;20037;-57
2022/07/09 13:44:05;;;;;;;14.70;10.20;;;;;;;;;;4681873;28;10000507;-56
2022/07/09 13:46:31;;;;;;;18.00;10.43;;;;;;;;;;5031965;28;20065;-57
2022/07/09 13:48:57;;;;;;;14.75;10.07;;;;;;;;;;5031353;28;20033;-56
2022/07/09 13:51:23;;;;;;;15.68;9.80;;;;;;;;;;5031851;28;20041;-56
2022/07/09 13:53:49;;;;;;;15.48;10.40;;;;;;;;;;5032130;28;20029;-58
2022/07/09 13:56:15;;;;;;;15.75;10.05;;;;;;;;;;5032269;28;20029;-58
2022/07/09 13:58:42;;;;;;;15.80;10.30;;;;;;;;;;5032262;28;20029;-59
2022/07/09 14:01:08;;;;;;;14.90;10.25;;;;;;;;;;5032209;28;20113;-58
2022/07/09 14:03:34;;;;;;;16.25;10.15;;;;;;;;;;5031825;28;20068;-60
2022/07/09 14:06:00;;;;;;;14.70;10.18;;;;;;;;;;5023285;28;20073;-59
2022/07/09 14:08:27;;;;;;;14.70;10.07;;;;;;;;;;5028130;28;20040;-57
2022/07/09 14:10:57;;;;;;;14.90;9.80;;;;;;;;;;5019472;28;20026;-60
2022/07/09 14:13:25;;;;;;;16.42;9.85;;;;;;;;;;5011535;28;20459;-60
2022/07/09 14:15:51;;;;;;;14.70;9.93;;;;;;;;;;5011774;28;20029;-59
2022/07/09 14:18:17;;;;;;;15.10;10.13;;;;;;;;;;5011208;28;20034;-53